METAR Data

Data at: 2216 UTC 26 Feb 2020

METAR for:KSFZ (Pawtucket/NC State A, RI, US)
Text:KSFZ 262156Z AUTO 06005KT 10SM OVC014 07/05 A2994 RMK AO2 SLPNO T00720050
Temperature: 7.2°C ( 45°F)
Dewpoint: 5.0°C ( 41°F) [RH = 86%]
Pressure (altimeter):29.94 inches Hg (1014.0 mb)
Winds:from the ENE (60 degrees) at 6 MPH (5 knots; 2.6 m/s)
Visibility:10 or more sm (16+ km)
Ceiling:1400 feet AGL
Clouds: overcast cloud deck at 1400 feet AGL
QC Flag:automated observation with no human augmentation